Date,TemperatureHighF,TemperatureAvgF,TemperatureLowF,DewpointHighF,DewpointAvgF,DewpointLowF,HumidityHigh,HumidityAvg,HumidityLow,PressureMaxIn,PressureMinIn,WindSpeedMaxMPH,WindSpeedAvgMPH,GustSpeedMaxMPH,PrecipitationSumIn
2013-1-1,22,16,9,11,6,2,76,67,48,30.30,30.19,2,0,0,0.00
2013-1-2,28,17,7,15,8,1,80,69,50,30.31,30.19,1,0,0,0.00
2013-1-3,27,23,16,24,19,12,88,82,77,30.35,30.18,2,1,0,0.00
2013-1-4,34,22,11,23,16,7,86,78,61,30.35,30.22,5,2,0,0.00
2013-1-5,36,28,19,31,25,16,93,86,69,30.32,30.01,3,1,0,0.00
2013-1-6,34,26,18,32,22,15,93,84,76,30.41,29.98,4,2,0,0.00
2013-1-7,38,26,15,27,21,13,91,79,60,30.41,30.19,3,1,0,0.00
2013-1-8,41,32,25,30,26,22,90,79,63,30.24,30.09,1,0,0,0.00
2013-1-9,48,38,27,32,27,21,92,67,38,30.55,30.07,7,2,0,0.00
2013-1-10,44,33,22,40,26,18,95,78,46,30.56,29.95,1,0,0,0.00
2013-1-11,50,48,41,49,46,40,97,95,89,29.97,29.72,3,1,0,0.00
2013-1-12,50,41,29,47,36,25,90,84,73,30.02,29.76,4,1,0,0.00
2013-1-13,29,22,12,26,18,7,92,86,79,30.31,29.92,3,1,0,0.00
2013-1-14,23,15,9,14,9,5,84,76,62,30.54,30.31,1,0,0,0.00
2013-1-15,29,19,10,16,12,7,88,74,55,30.53,30.21,0,0,0,0.00
2013-1-16,34,25,14,26,19,11,89,78,64,30.21,29.91,4,1,0,0.00
2013-1-17,29,24,17,26,14,7,90,66,47,30.49,30.12,4,1,0,0.00
2013-1-18,40,29,16,30,22,11,86,74,61,30.51,29.99,5,1,0,0.00
2013-1-19,45,38,26,37,30,11,79,72,49,30.01,29.79,6,2,0,0.00
2013-1-20,25,15,10,12,4,1,68,60,54,30.37,29.97,6,2,0,0.00
2013-1-21,12,7,2,3,-3,-8,74,61,50,30.38,30.23,5,2,0,0.00
2013-1-22,10,4,-3,-2,-6,-9,76,63,51,30.50,30.37,3,1,0,0.00
2013-1-23,18,13,8,13,5,-3,80,69,60,30.46,30.21,5,1,0,0.00
2013-1-24,20,12,3,8,1,-5,71,62,47,30.72,30.42,2,0,0,0.00
2013-1-25,26,21,17,20,14,5,86,75,58,30.48,30.06,3,1,0,0.00
2013-1-26,26,19,8,17,9,3,82,66,51,30.48,30.26,2,0,0,0.00
2013-1-27,35,27,22,32,22,16,94,81,70,30.46,29.98,1,0,0,0.00
2013-1-28,47,42,35,46,40,34,97,95,90,30.00,29.86,2,1,0,0.00
2013-1-29,60,54,38,59,53,37,98,96,93,29.87,29.41,3,1,0,0.00
2013-1-30,51,33,19,50,32,15,97,94,83,29.66,29.23,4,1,0,0.00
2013-1-31,19,10,2,15,4,-3,84,78,72,30.26,29.66,5,3,0,0.00
2013-2-1,13,5,-1,9,-1,-6,84,75,68,30.47,30.25,4,1,0,0.00
2013-2-2,23,15,7,21,11,1,100,83,74,30.29,30.11,3,0,0,0.00
2013-2-3,21,15,8,16,10,2,88,80,70,30.16,30.05,4,1,0,0.00
2013-2-4,27,22,14,24,19,9,92,88,85,30.13,29.93,0,0,0,0.00
2013-2-5,30,21,8,27,18,5,91,86,82,30.17,29.88,2,0,0,0.00
2013-2-6,36,28,12,29,22,8,89,77,67,30.31,30.14,1,0,0,0.00
2013-2-7,34,32,31,32,30,27,95,92,83,30.19,29.92,2,0,0,0.00
2013-2-8,31,25,21,30,23,19,95,90,85,30.47,30.01,2,1,0,0.00
2013-2-9,32,27,24,27,23,20,91,84,75,30.48,30.15,1,0,0,0.00
2013-2-10,47,38,30,45,36,25,96,90,78,30.16,29.55,3,1,0,0.00
2013-2-11,42,32,27,37,25,20,83,76,71,30.10,29.57,9,4,0,0.00
2013-2-12,28,25,21,22,20,17,92,80,76,30.18,29.99,3,1,0,0.00
2013-2-13,43,31,20,32,26,17,93,83,63,30.00,29.78,2,0,0,0.00
2013-2-14,38,35,31,32,28,22,87,77,62,30.04,29.70,5,2,0,0.00
2013-2-15,31,26,18,25,16,9,83,65,48,30.25,30.03,3,1,0,0.00
2013-2-16,19,14,8,9,5,0,75,64,56,30.29,30.20,3,1,0,0.00
2013-2-17,28,17,4,15,5,-1,84,61,38,30.32,30.09,1,0,0,0.00
2013-2-18,51,39,26,44,31,15,93,74,63,30.10,29.47,6,1,0,0.00
2013-2-19,28,14,8,26,9,2,92,79,72,30.28,29.61,7,4,0,0.00
2013-2-20,22,13,6,13,6,0,80,72,65,30.46,30.28,3,1,0,0.00
2013-2-21,28,22,12,24,18,8,92,82,79,30.47,30.06,4,1,0,0.00
2013-2-22,32,26,22,30,24,20,94,90,84,30.07,29.88,3,1,0,0.00
2013-2-23,26,24,19,23,19,15,88,81,71,30.04,29.97,3,1,0,0.00
2013-2-24,36,25,13,23,18,10,90,75,58,30.23,30.04,1,0,0,0.00
2013-2-25,42,30,18,28,22,15,92,74,50,30.25,30.03,2,0,0,0.00
2013-2-26,34,32,30,30,28,25,95,85,72,30.03,29.59,5,2,0,0.00
2013-2-27,33,31,31,31,30,29,96,95,93,29.77,29.58,2,1,0,0.00
2013-2-28,34,31,27,31,28,20,93,86,76,30.13,29.77,2,1,0,0.00
2013-3-1,27,25,24,24,21,19,92,85,79,30.26,30.11,2,1,0,0.00
2013-3-2,30,24,15,20,17,9,85,74,60,30.27,30.22,4,1,0,0.00
2013-3-3,32,21,11,15,11,7,92,66,46,30.24,30.16,2,0,0,0.00
2013-3-4,31,25,15,24,18,10,90,76,60,30.21,30.07,2,0,0,0.00
2013-3-5,31,30,27,29,27,25,94,90,77,30.07,29.86,1,0,0,0.00
2013-3-6,35,29,26,28,25,23,93,86,76,30.37,30.05,3,1,0,0.00
2013-3-7,35,30,25,25,24,18,87,76,64,30.49,30.37,1,0,0,0.00
2013-3-8,39,30,18,26,22,15,92,74,57,30.56,30.38,1,0,0,0.00
2013-3-9,45,37,29,34,29,23,88,75,66,30.38,29.90,2,0,0,0.00
2013-3-10,48,44,40,47,42,34,96,92,66,29.93,29.66,1,0,0,0.00
2013-3-11,47,37,31,46,36,29,96,95,92,29.84,29.59,3,1,0,0.00
2013-3-12,35,30,25,29,25,19,92,82,69,30.09,29.84,5,2,0,0.00
2013-3-13,31,26,20,20,16,11,83,67,42,30.40,30.09,6,2,0,0.00
2013-3-14,34,27,18,28,21,13,91,77,54,30.41,30.15,1,0,0,0.00
2013-3-15,39,34,29,37,31,27,94,90,78,30.16,29.80,2,0,0,0.00
2013-3-16,33,31,29,32,28,22,95,89,77,30.19,29.77,2,1,0,0.00
2013-3-17,34,29,24,24,21,16,77,71,61,30.27,30.06,4,1,0,0.00
2013-3-18,33,29,21,31,25,13,93,86,73,30.06,29.68,7,2,0,0.00
2013-3-19,31,23,15,18,13,9,77,67,56,30.17,29.86,7,4,0,0.00
2013-3-20,24,19,12,14,8,4,79,63,55,30.18,30.10,6,2,0,0.00
2013-3-21,33,22,11,17,11,4,77,65,51,30.15,30.09,3,1,0,0.00
2013-3-22,39,27,15,19,15,10,86,62,42,30.14,30.07,2,0,0,0.00
2013-3-23,41,31,22,25,21,18,86,67,45,30.20,30.09,2,1,0,0.00
2013-3-24,35,32,30,28,25,22,90,76,67,30.10,29.71,6,2,0,0.00
2013-3-25,35,32,30,29,26,23,86,78,70,30.14,29.77,3,1,0,0.00
2013-3-26,40,34,30,27,24,22,79,68,51,30.32,30.14,2,1,0,0.00
2013-3-27,42,35,28,27,24,19,81,64,47,30.38,30.32,2,0,0,0.00
2013-3-28,49,36,24,26,23,19,85,60,39,30.42,30.34,2,0,0,0.00
2013-3-29,54,41,27,27,24,20,78,53,34,30.38,30.27,2,0,0,0.00
2013-3-30,57,44,27,41,31,-100,92,64,45,30.30,29.89,2,0,0,0.00
2013-3-31,57,46,36,42,37,26,92,72,47,29.93,29.75,6,2,0,0.00
2013-4-1,39,33,27,27,18,15,71,54,40,30.25,29.93,4,2,0,0.00
2013-4-2,44,32,21,19,16,14,77,52,31,30.38,30.24,4,1,0,0.00
2013-4-3,43,33,21,22,16,13,75,52,35,30.51,30.38,2,0,0,0.00
2013-4-4,57,42,25,34,24,16,75,52,33,30.40,30.03,3,1,0,0.00
2013-4-5,45,40,35,34,25,15,75,56,39,30.27,30.06,3,1,0,0.00
2013-4-6,67,51,34,46,34,24,75,53,36,30.21,29.64,5,1,0,0.00
2013-4-7,59,48,38,47,39,31,87,71,51,30.01,29.66,3,1,0,0.00
2013-4-8,65,52,38,54,45,32,95,78,64,30.01,29.61,8,2,0,0.00
2013-4-9,57,43,39,50,40,37,100,90,75,30.03,29.87,3,1,0,0.00
2013-4-10,39,38,36,38,37,35,96,95,93,30.12,29.88,6,2,0,0.00
2013-4-11,46,41,36,45,40,35,98,97,96,29.93,29.62,6,2,0,0.00
2013-4-12,44,38,34,39,34,30,97,87,76,29.91,29.62,4,2,0,0.00
2013-4-13,44,38,32,32,30,26,89,73,58,30.04,29.90,5,2,0,0.00
2013-4-14,69,51,37,52,39,29,80,65,50,30.06,29.70,3,1,0,0.00
2013-4-15,65,55,45,55,49,42,93,80,58,30.02,29.71,4,1,0,0.00
2013-4-16,56,45,37,42,36,32,92,73,45,30.32,29.98,3,1,0,0.00
2013-4-17,42,42,41,34,33,32,73,71,69,30.33,30.26,3,1,0,0.00
2013-5-2,45,44,43,40,39,38,85,84,83,30.22,30.20,3,2,0,0.00
2013-5-3,46,42,39,44,40,35,94,92,86,30.21,30.00,2,1,0,0.00
2013-5-4,70,57,46,55,47,44,95,72,49,30.08,29.99,3,0,0,0.00
2013-5-5,69,58,48,50,45,41,82,62,45,30.07,30.00,3,1,0,0.00
2013-5-6,72,60,52,46,41,36,68,51,32,30.06,30.00,3,0,0,0.00
2013-5-7,76,62,46,53,43,37,78,53,37,30.08,30.01,1,0,0,0.00
2013-5-8,80,64,47,54,47,42,88,56,33,30.06,29.98,0,0,0,0.00
2013-5-9,73,60,47,60,52,44,93,77,55,30.00,29.86,0,0,0,0.00
2013-5-10,47,44,43,45,41,-100,96,92,86,30.03,29.81,0,0,0,0.00
2013-5-11,58,48,42,49,38,-100,95,72,40,30.09,29.89,0,0,0,0.00
2013-5-12,55,44,35,32,29,26,76,57,36,30.17,30.09,0,0,0,0.00
2013-5-13,64,50,32,38,33,28,90,57,29,30.23,30.05,0,0,0,0.00
2013-5-14,90,71,51,61,50,37,64,50,28,30.06,29.66,0,0,0,0.00
2013-5-15,83,74,60,60,54,50,74,50,35,29.84,29.65,0,0,0,0.00
2013-5-16,82,62,53,56,31,-100,86,57,30,29.99,29.83,0,0,0,0.00
2013-5-17,70,60,54,56,44,-100,72,64,57,30.07,29.97,0,0,0,0.00
2013-5-18,79,67,54,64,57,47,91,72,56,30.09,29.97,0,0,0,0.00
2013-5-19,86,73,57,68,62,53,94,71,51,29.98,29.78,0,0,0,0.00
2013-5-20,89,78,65,69,63,58,91,62,35,29.80,29.70,0,0,0,0.00
2013-5-21,80,70,60,67,63,59,97,81,61,29.76,29.66,1,0,0,0.00
2013-5-22,72,66,62,66,61,55,97,85,64,29.76,29.64,1,0,0,0.00
2013-5-23,62,49,40,55,45,34,95,85,73,30.33,29.76,1,0,0,0.00
2013-5-24,58,48,36,39,35,31,86,63,40,30.49,30.33,0,0,0,0.00
2013-5-25,57,49,40,43,38,35,83,67,54,30.45,30.35,0,0,0,0.00
2013-5-26,67,54,42,55,45,35,83,70,45,30.36,30.16,0,0,0,0.00
2013-5-27,62,57,53,59,55,49,96,91,81,30.18,29.88,0,0,0,0.00
2013-5-28,74,66,56,69,64,54,98,91,79,29.91,29.75,0,0,0,0.00
2013-5-29,83,71,62,70,65,61,96,82,61,29.98,29.79,0,0,0,0.00
2013-5-30,82,74,63,71,66,60,91,76,63,29.94,29.77,0,0,0,0.00
2013-5-31,76,69,62,67,65,60,97,86,71,29.88,29.73,0,0,0,0.00
2013-6-1,73,67,61,69,63,59,96,87,76,29.76,29.62,0,0,0,0.00
2013-6-2,60,53,44,59,52,41,97,95,92,30.02,29.67,0,0,0,0.00
2013-6-3,67,53,39,50,43,37,96,72,45,30.11,30.01,0,0,0,0.00
2013-6-4,70,59,45,52,46,42,91,65,44,30.14,30.05,2,0,0,0.00
2013-6-5,71,60,53,55,50,45,85,71,56,30.08,29.90,1,0,0,0.00
2013-6-6,63,56,51,56,51,45,95,83,64,29.92,29.85,2,0,0,0.00
2013-6-7,67,58,49,53,47,40,86,70,50,29.93,29.88,2,0,0,0.00
2013-6-8,73,67,51,52,46,42,70,48,39,29.98,29.90,1,0,0,0.00
2013-6-9,78,74,58,62,58,47,72,57,51,29.98,29.77,1,0,0,0.00
2013-6-10,79,69,62,66,63,59,95,81,61,29.82,29.70,1,0,0,0.00
2013-6-11,83,70,60,71,64,58,95,82,54,29.88,29.76,1,0,0,0.00
2013-6-12,85,72,62,75,67,61,95,86,69,29.88,29.55,1,0,0,0.00
2013-6-13,75,65,57,61,57,51,97,76,54,30.01,29.60,0,0,0,0.00
2013-6-14,79,64,52,60,53,48,90,70,46,30.10,29.98,0,0,0,0.00
2013-6-15,79,68,56,68,61,49,92,80,68,30.02,29.82,0,0,0,0.00
2013-6-16,85,75,67,68,64,60,88,71,54,29.87,29.82,0,0,0,0.00
2013-6-17,87,74,60,65,59,54,90,63,35,29.89,29.79,0,0,0,0.00
2013-6-18,70,61,55,58,54,47,94,78,60,30.04,29.87,0,0,0,0.00
2013-6-19,74,64,52,59,51,42,89,65,42,30.11,30.03,0,0,0,0.00
2013-6-20,86,67,55,68,55,42,87,65,48,30.12,30.05,0,0,0,0.00
2013-6-22,78,75,68,73,70,66,95,83,74,30.05,29.90,0,0,0,0.00
2013-6-23,85,72,66,72,67,63,95,85,66,30.00,29.88,0,0,0,0.00
2013-6-24,85,72,65,73,68,64,96,86,60,30.02,29.80,2,0,0,0.00
2013-6-25,85,73,65,76,69,64,97,88,73,29.92,29.76,0,0,0,0.00
2013-6-26,79,71,66,71,67,64,96,86,74,29.79,29.67,0,0,0,0.00
2013-6-27,90,76,64,74,67,62,97,76,51,29.74,29.63,0,0,0,0.00
2013-6-28,82,73,66,66,62,59,86,70,49,29.66,29.54,0,0,0,0.00
2013-6-29,69,65,62,64,60,54,95,86,70,29.72,29.54,0,0,0,0.00
2013-6-30,77,68,61,62,55,42,89,65,37,29.94,29.72,0,0,0,0.00
2013-7-1,73,66,57,55,52,47,82,61,45,30.03,29.94,0,0,0,0.00
2013-7-2,65,62,58,56,53,50,85,74,65,30.05,30.00,0,0,0,0.00
2013-7-3,70,63,60,64,60,55,95,90,81,30.04,29.98,0,0,0,0.00
2013-7-4,81,70,57,67,61,55,96,76,56,30.07,29.99,0,0,0,0.00
2013-7-5,85,74,60,69,63,57,93,71,45,30.05,29.96,0,0,0,0.00
2013-7-6,82,72,64,69,65,61,94,80,62,30.02,29.93,0,0,0,0.00
2013-7-7,88,78,69,73,68,65,89,74,58,29.97,29.89,0,0,0,0.00
2013-7-8,85,76,69,77,70,-100,97,84,70,29.97,29.87,0,0,0,0.00
2013-7-9,82,78,72,77,74,70,96,87,78,29.93,29.80,0,0,0,0.00
2013-7-10,85,77,65,75,65,-100,96,71,49,29.95,29.78,0,0,0,0.00
2013-7-11,79,69,60,61,56,49,93,66,42,30.06,29.95,0,0,0,0.00
2013-7-12,84,68,55,59,53,46,91,62,33,30.12,30.03,0,0,0,0.00
2013-7-13,84,72,59,65,60,56,93,68,46,30.12,30.06,0,0,0,0.00
2013-7-14,87,77,66,70,67,61,92,73,55,30.16,30.10,0,0,0,0.00
2013-7-15,89,78,70,77,72,67,93,81,59,30.21,30.15,0,0,0,0.00
2013-7-16,93,82,72,77,73,70,95,77,57,30.26,30.18,0,0,0,0.00
2013-7-17,96,84,74,76,73,70,91,72,52,30.26,30.11,0,0,0,0.00
2013-7-18,94,83,75,77,74,72,92,77,50,30.13,29.90,0,0,0,0.00
2013-7-19,95,85,71,75,72,68,92,68,46,29.90,29.70,0,0,0,0.00
2013-7-20,88,75,66,70,64,-100,97,75,41,29.91,29.74,0,0,0,0.00
2013-7-21,87,74,64,72,66,63,96,78,51,29.91,29.79,0,0,0,0.00
2013-7-22,88,77,68,72,68,65,94,77,51,29.83,29.69,0,0,0,0.00
2013-7-23,78,69,61,70,62,55,92,78,53,29.93,29.62,0,0,0,0.00
2013-7-24,71,63,54,56,53,49,89,70,51,30.03,29.93,0,0,0,0.00
2013-7-25,80,67,53,60,56,50,93,68,47,30.08,30.00,0,0,0,0.00
2013-7-26,69,66,62,65,62,58,94,85,70,30.01,29.85,0,0,0,0.00
2013-7-27,64,59,56,60,52,47,95,79,62,29.88,29.83,0,0,0,0.00
2013-7-28,68,59,52,53,50,47,91,73,53,30.00,29.84,0,0,0,0.00
2013-7-29,76,64,53,60,55,50,91,73,54,30.14,29.99,0,0,0,0.00
2013-7-30,71,64,55,64,59,53,94,86,69,30.15,30.05,0,0,0,0.00
2013-7-31,72,66,63,67,64,61,96,92,80,30.04,29.91,0,0,0,0.00
2013-8-1,81,68,59,65,58,55,97,74,45,29.95,29.90,0,0,0,0.00
2013-8-2,83,72,61,71,64,56,95,77,63,29.91,29.80,0,0,0,0.00
2013-8-3,81,71,62,61,57,51,84,62,38,30.07,29.90,0,0,0,0.00
2013-8-4,75,66,57,63,57,53,92,74,56,30.15,30.06,0,0,0,0.00
2013-8-5,72,64,56,64,58,52,90,81,68,30.09,29.85,0,0,0,0.00
2013-8-6,82,73,67,72,68,62,93,84,70,29.86,29.78,0,0,0,0.00
2013-8-7,88,77,68,74,69,62,95,80,58,29.90,29.75,0,0,0,0.00
2013-8-8,77,69,64,63,59,52,93,71,49,29.98,29.90,0,0,0,0.00
2013-8-9,81,71,57,66,60,53,91,70,55,29.99,29.93,0,0,0,0.00
2013-8-10,79,71,62,66,60,55,94,69,49,30.08,29.98,0,0,0,0.00
2013-8-11,81,69,57,66,60,54,93,73,54,30.09,29.99,0,0,0,0.00
2013-8-12,81,73,67,69,65,63,90,77,63,29.99,29.81,0,0,0,0.00
2013-8-13,68,63,58,64,51,-100,90,70,52,30.11,29.88,0,0,0,0.00
2013-8-14,72,61,51,53,50,48,93,71,47,30.19,30.11,0,0,0,0.00
2013-8-15,72,55,54,58,32,-100,89,66,54,30.15,30.07,0,0,0,0.00
2013-8-16,80,64,54,58,47,-100,92,63,40,30.13,30.09,0,0,0,0.00
2013-8-21,90,78,66,69,67,63,92,70,50,30.05,29.92,0,0,0,0.00
2013-8-22,78,70,65,70,67,63,96,92,74,30.10,29.96,0,0,0,0.00
2013-8-23,80,70,60,65,57,49,97,68,36,30.14,30.06,0,0,0,0.00
2013-8-24,86,70,59,66,58,-100,95,71,50,30.22,30.14,0,0,0,0.00
2013-8-25,87,76,64,71,64,55,74,67,57,30.21,30.09,0,0,0,0.00
2013-8-26,90,78,67,75,69,62,84,75,60,30.11,29.95,0,0,0,0.00
2013-8-27,93,80,74,75,72,70,88,78,55,29.95,29.83,0,0,0,0.00
2013-9-7,86,73,64,67,61,-100,93,72,48,29.97,29.84,0,0,0,0.00
2013-9-8,76,72,70,69,67,65,91,84,77,29.96,29.89,2,1,0,0.00
2013-9-9,92,79,67,76,71,64,95,77,60,29.92,29.77,0,0,0,0.00
2013-9-10,94,84,75,72,68,65,73,59,44,29.94,29.82,1,0,0,0.00
2013-9-11,88,79,72,72,68,65,85,71,58,29.99,29.92,0,0,0,0.00
2013-9-12,79,70,61,68,61,54,93,75,43,30.03,29.89,2,0,0,0.00
2013-9-13,65,58,50,56,47,42,86,68,49,30.14,30.03,1,0,0,0.00
2013-10-2,76,67,58,63,53,47,94,65,40,30.06,29.93,2,0,0,0.00
2013-10-3,75,66,59,70,63,52,97,89,71,29.94,29.80,0,0,0,0.00
2013-10-4,73,68,63,69,66,62,98,93,88,29.94,29.86,1,0,0,0.00
2013-10-5,79,68,62,72,66,61,98,94,78,29.91,29.71,0,0,0,0.00
2013-10-6,64,53,44,63,46,39,96,79,56,29.75,29.66,1,0,0,0.00
2013-10-7,67,51,42,50,44,39,95,80,50,30.06,29.75,1,0,0,0.00
2013-10-8,76,58,44,54,49,42,95,73,44,30.16,30.06,0,0,0,0.00
2013-10-9,72,57,46,50,47,43,92,72,43,30.22,30.11,1,0,0,0.00
2013-10-10,73,58,46,56,50,44,95,76,50,30.15,30.02,0,0,0,0.00
2013-10-18,48,42,37,43,39,35,95,87,74,29.96,29.83,1,0,0,0.00
2013-10-19,51,44,40,39,35,-100,87,75,53,29.93,29.77,1,0,0,0.00
2013-10-20,59,49,37,48,42,34,93,78,62,29.88,29.70,0,0,0,0.00
2013-10-21,53,44,31,48,35,24,84,70,49,29.96,29.76,1,0,0,0.00
2013-10-22,38,33,27,35,29,23,92,85,64,29.98,29.92,0,0,0,0.00
2013-10-23,43,36,28,31,28,26,93,76,56,30.02,29.91,1,0,0,0.00
2013-10-24,41,37,32,29,26,23,79,66,53,30.29,30.01,1,0,0,0.00
2013-10-25,50,42,25,31,29,22,89,60,46,30.41,30.06,1,0,0,0.00
2013-10-26,52,43,35,38,30,-100,78,60,48,30.06,29.85,1,0,0,0.00
2013-10-27,52,42,28,34,30,25,91,66,48,30.06,29.96,1,0,0,0.00
2013-10-28,50,42,34,42,34,-100,92,79,68,30.35,30.05,3,1,0,0.00
2013-10-29,55,46,39,43,39,35,92,79,57,30.35,30.13,1,0,0,0.00
2013-10-30,59,52,43,57,49,40,97,92,80,30.13,29.73,0,0,0,0.00
2013-11-25,29,26,19,26,19,10,92,76,59,30.40,30.10,2,1,0,0.00
2013-11-26,32,27,15,28,21,5,89,80,63,30.16,30.02,4,1,0,0.00
2013-11-27,26,18,10,14,10,4,78,69,56,30.28,30.15,2,1,0,0.00
2013-11-28,31,24,18,19,14,12,79,66,56,30.50,30.20,2,0,0,0.00
2013-11-29,34,24,12,22,16,9,88,72,57,30.65,30.42,1,0,0,0.00
2013-11-30,48,36,28,32,25,-100,80,67,53,30.41,30.05,2,0,0,0.00
2013-12-1,41,34,28,34,29,24,90,82,70,30.11,30.02,2,0,0,0.00